Time;durP1;ratioP1;P1;durP2;ratioP2;P2;SDS_P1;SDS_P2;PMS_P1;PMS_P2;Temp;Humidity;BMP_temperature;BMP_pressure;BME280_temperature;BME280_humidity;BME280_pressure;Samples;Min_cycle;Max_cycle;Signal;HPM_P1;HPM_P2
2021/07/09 00:01:55;;;;;;;14.27;8.57;;;;;;;27.34;63.75;100821.59;6242386;22;20020;-68
2021/07/09 00:04:23;;;;;;;18.02;8.63;;;;;;;27.36;63.66;100818.78;6242160;22;20343;-68
2021/07/09 00:06:55;;;;;;;16.13;8.63;;;;;;;27.42;63.71;100817.59;6242548;22;20031;-68
2021/07/09 00:09:23;;;;;;;15.98;8.07;;;;;;;27.41;63.74;100822.13;6242249;22;20094;-69
2021/07/09 00:11:53;;;;;;;16.10;7.63;;;;;;;27.33;63.96;100808.97;6242887;22;20043;-68
2021/07/09 00:14:24;;;;;;;18.85;8.55;;;;;;;27.34;63.34;100802.59;6242394;22;20403;-68
2021/07/09 00:16:54;;;;;;;18.77;8.82;;;;;;;27.33;64.08;100805.38;6243329;22;20020;-68
2021/07/09 00:19:23;;;;;;;19.10;8.73;;;;;;;27.30;63.58;100802.84;6242413;22;20373;-68
2021/07/09 00:21:51;;;;;;;14.40;8.18;;;;;;;27.25;63.86;100799.47;6243175;22;20458;-68
2021/07/09 00:24:19;;;;;;;16.75;7.55;;;;;;;27.26;63.99;100790.41;6242739;22;20031;-68
2021/07/09 00:26:48;;;;;;;17.13;8.27;;;;;;;27.29;63.44;100801.09;6241717;22;20473;-68
2021/07/09 00:29:15;;;;;;;19.42;8.18;;;;;;;27.23;63.97;100796.00;6242937;22;20028;-68
2021/07/09 00:31:43;;;;;;;15.45;8.23;;;;;;;27.22;63.98;100795.13;6243147;22;20028;-69
2021/07/09 00:34:12;;;;;;;20.67;7.97;;;;;;;27.23;63.44;100801.41;6243125;22;20038;-68
2021/07/09 00:36:39;;;;;;;17.83;8.45;;;;;;;27.21;63.72;100803.31;6225394;22;20485;-68
2021/07/09 00:39:09;;;;;;;16.83;8.23;;;;;;;27.22;63.30;100802.38;6222878;22;20020;-68
2021/07/09 00:41:37;;;;;;;17.63;8.27;;;;;;;27.17;63.48;100793.63;6242443;22;20370;-68
2021/07/09 00:44:05;;;;;;;21.13;8.85;;;;;;;27.15;64.13;100801.81;6243078;22;20083;-68
2021/07/09 00:46:35;;;;;;;12.50;7.47;;;;;;;27.18;63.49;100800.75;6242915;22;20400;-68
2021/07/09 00:49:03;;;;;;;16.02;7.82;;;;;;;27.15;63.76;100793.69;6241511;22;20091;-68
2021/07/09 00:51:32;;;;;;;17.83;7.93;;;;;;;27.15;63.48;100793.69;6242940;22;20021;-68
2021/07/09 00:54:00;;;;;;;16.58;7.72;;;;;;;27.12;63.70;100792.94;6241637;22;20016;-68
2021/07/09 00:56:29;;;;;;;15.75;7.85;;;;;;;27.07;64.11;100786.91;6242823;22;20050;-68
2021/07/09 00:58:58;;;;;;;19.40;8.75;;;;;;;27.05;64.37;100786.97;6242650;22;20047;-69
2021/07/09 01:01:26;;;;;;;17.00;7.22;;;;;;;27.08;63.82;100785.94;6241466;22;20020;-67
2021/07/09 01:03:53;;;;;;;19.83;8.20;;;;;;;27.09;63.63;100791.31;6242212;22;20008;-69
2021/07/09 01:06:22;;;;;;;15.80;8.07;;;;;;;27.07;64.41;100790.50;6241959;22;20012;-67
2021/07/09 01:08:52;;;;;;;14.65;7.40;;;;;;;27.09;64.50;100787.72;6241067;22;20016;-68
2021/07/09 01:11:21;;;;;;;16.98;8.05;;;;;;;27.06;64.46;100793.28;6241873;22;20024;-67
2021/07/09 01:13:49;;;;;;;15.10;7.45;;;;;;;27.03;64.60;100794.34;6241488;22;20020;-68
2021/07/09 01:16:16;;;;;;;16.23;7.50;;;;;;;27.08;64.40;100797.69;6242440;22;20036;-68
2021/07/09 01:18:45;;;;;;;17.73;8.07;;;;;;;27.07;64.21;100801.34;6242728;22;20047;-68
2021/07/09 01:21:13;;;;;;;24.55;7.78;;;;;;;27.05;64.59;100792.41;6242006;22;20025;-68
2021/07/09 01:23:42;;;;;;;17.33;8.52;;;;;;;27.04;64.18;100796.09;6241353;22;20040;-67
2021/07/09 01:26:12;;;;;;;15.90;8.50;;;;;;;27.03;63.96;100790.75;6242526;22;20390;-67
2021/07/09 01:28:40;;;;;;;17.85;7.88;;;;;;;26.98;64.00;100793.66;6224776;22;20020;-67
2021/07/09 01:31:08;;;;;;;19.20;7.70;;;;;;;26.99;64.48;100790.00;6241604;22;20020;-68
2021/07/09 01:33:37;;;;;;;15.80;7.65;;;;;;;26.98;64.36;100791.84;6223596;22;20066;-68
2021/07/09 01:36:05;;;;;;;16.70;7.70;;;;;;;26.98;64.30;100797.25;6242065;22;20023;-68
2021/07/09 01:38:32;;;;;;;17.15;6.75;;;;;;;26.98;64.40;100784.69;6241781;22;20016;-68
2021/07/09 01:41:00;;;;;;;15.52;7.28;;;;;;;26.96;64.12;100791.06;6242106;22;20353;-68
2021/07/09 01:43:30;;;;;;;16.55;7.43;;;;;;;26.98;63.55;100786.41;6240351;22;20040;-68
2021/07/09 01:45:58;;;;;;;21.70;6.93;;;;;;;26.93;63.34;100780.38;6241987;22;20016;-68
2021/07/09 01:48:26;;;;;;;14.15;7.25;;;;;;;26.92;63.61;100781.31;6242755;22;20020;-68
2021/07/09 01:50:54;;;;;;;21.50;8.05;;;;;;;26.92;63.90;100775.00;6243228;22;20039;-68
2021/07/09 01:53:21;;;;;;;16.45;7.15;;;;;;;26.91;63.70;100779.56;6244051;22;20064;-67
2021/07/09 01:55:50;;;;;;;18.02;7.57;;;;;;;26.91;63.60;100782.28;6244022;22;20043;-68
2021/07/09 01:58:18;;;;;;;17.42;7.03;;;;;;;26.89;63.57;100767.94;6244222;22;20070;-69
2021/07/09 02:00:47;;;;;;;15.35;6.80;;;;;;;26.90;64.04;100769.69;6244329;22;20039;-68
2021/07/09 02:03:15;;;;;;;17.08;8.00;;;;;;;26.89;64.63;100767.06;6244292;22;20373;-67
2021/07/09 02:05:42;;;;;;;20.65;7.47;;;;;;;26.87;65.17;100758.09;6243856;22;20485;-67
2021/07/09 02:08:10;;;;;;;20.08;7.95;;;;;;;26.86;65.12;100759.03;6245156;22;20068;-68
2021/07/09 02:10:39;;;;;;;18.70;8.25;;;;;;;26.86;64.86;100759.03;6244037;22;20083;-68
2021/07/09 02:13:07;;;;;;;20.27;7.80;;;;;;;26.83;65.38;100757.38;6225518;22;20066;-69
2021/07/09 02:15:38;;;;;;;15.93;7.55;;;;;;;26.84;65.34;100755.56;6243960;22;20066;-68
2021/07/09 02:18:08;;;;;;;15.80;6.93;;;;;;;26.80;65.82;100759.38;6243906;22;20095;-69
2021/07/09 02:20:36;;;;;;;19.77;7.63;;;;;;;26.81;65.39;100761.13;6244420;22;20123;-68
2021/07/09 02:23:07;;;;;;;20.15;7.55;;;;;;;26.79;65.88;100761.19;6244589;22;20032;-68
2021/07/09 02:25:35;;;;;;;16.95;7.32;;;;;;;26.78;65.61;100762.16;6243219;22;20020;-69
2021/07/09 02:28:02;;;;;;;16.33;7.28;;;;;;;26.78;65.42;100769.44;6244539;22;20036;-68
2021/07/09 02:30:31;;;;;;;17.65;7.22;;;;;;;26.80;65.59;100759.38;6244180;22;20051;-68
2021/07/09 02:33:00;;;;;;;16.60;7.13;;;;;;;26.78;65.11;100772.97;6243902;22;20016;-68
2021/07/09 02:35:30;;;;;;;19.73;7.60;;;;;;;26.79;64.80;100777.44;6244348;22;20488;-68
2021/07/09 02:37:58;;;;;;;15.13;7.95;;;;;;;26.76;64.86;100769.50;6244074;22;20469;-68
2021/07/09 02:40:29;;;;;;;17.00;7.03;;;;;;;26.78;64.79;100772.13;6243223;22;20346;-68
2021/07/09 02:42:59;;;;;;;17.65;7.18;;;;;;;26.75;65.22;100770.44;6244426;22;20042;-68
2021/07/09 02:45:28;;;;;;;16.02;7.10;;;;;;;26.74;65.38;100771.41;6244162;22;20070;-68
2021/07/09 02:47:56;;;;;;;16.45;7.70;;;;;;;26.73;65.39;100768.75;6243337;22;20087;-68
2021/07/09 02:50:25;;;;;;;20.42;8.88;;;;;;;26.73;65.13;100768.75;6244018;22;20032;-67
2021/07/09 02:52:55;;;;;;;16.30;7.30;;;;;;;26.74;65.12;100782.25;6243957;22;20066;-68
2021/07/09 02:55:22;;;;;;;14.38;6.65;;;;;;;26.74;65.67;100774.09;6243634;22;20020;-68
2021/07/09 02:57:50;;;;;;;13.88;6.30;;;;;;;26.74;64.77;100771.41;6243376;22;20020;-68
2021/07/09 03:00:20;;;;;;;14.18;6.65;;;;;;;26.72;64.86;100769.72;6241802;22;20024;-67
2021/07/09 03:02:49;;;;;;;16.33;7.28;;;;;;;26.71;64.91;100768.88;6242256;22;20350;-67
2021/07/09 03:05:17;;;;;;;15.32;6.68;;;;;;;26.70;64.61;100768.94;6242965;22;20039;-68
2021/07/09 03:07:44;;;;;;;22.83;7.78;;;;;;;26.71;64.79;100768.00;6241816;22;20070;-67
2021/07/09 03:10:15;;;;;;;14.00;6.95;;;;;;;26.70;64.76;100771.66;6242527;22;20066;-67
2021/07/09 03:12:42;;;;;;;16.98;7.72;;;;;;;26.69;65.23;100769.88;6242922;22;20020;-68
2021/07/09 03:15:13;;;;;;;18.40;7.53;;;;;;;26.66;65.14;100768.19;6243724;22;20066;-67
2021/07/09 03:17:41;;;;;;;15.15;7.28;;;;;;;26.68;64.81;100770.84;6225527;22;20032;-68
2021/07/09 03:20:11;;;;;;;18.08;8.27;;;;;;;26.69;64.96;100767.19;6224766;22;20016;-68
2021/07/09 03:22:39;;;;;;;20.48;8.13;;;;;;;26.69;64.45;100767.19;6243769;22;20058;-68
2021/07/09 03:25:09;;;;;;;15.18;7.93;;;;;;;26.71;64.92;100766.16;6243951;22;20441;-68
2021/07/09 03:27:39;;;;;;;12.82;6.72;;;;;;;26.78;64.47;100774.84;6242675;22;20024;-68
2021/07/09 03:30:07;;;;;;;18.70;7.80;;;;;;;26.87;64.77;100772.53;6243248;22;20477;-68
2021/07/09 03:32:34;;;;;;;14.85;6.55;;;;;;;26.96;64.45;100765.78;6243555;22;20039;-68
2021/07/09 03:35:04;;;;;;;16.48;7.13;;;;;;;27.04;63.79;100771.69;6243555;22;20087;-66
2021/07/09 03:37:32;;;;;;;14.63;7.25;;;;;;;27.12;63.66;100771.28;6242909;22;20020;-68
2021/07/09 03:39:59;;;;;;;17.60;6.80;;;;;;;27.19;63.29;100773.56;6243183;22;20047;-68
2021/07/09 03:42:27;;;;;;;16.75;6.95;;;;;;;27.26;63.17;100772.28;6242734;22;20319;-68
2021/07/09 03:44:56;;;;;;;14.35;6.18;;;;;;;27.37;63.08;100772.59;6243860;22;20050;-68
2021/07/09 03:47:24;;;;;;;14.88;6.03;;;;;;;27.47;62.84;100772.09;6242987;22;20024;-68
2021/07/09 03:49:51;;;;;;;17.38;6.68;;;;;;;27.56;62.69;100775.25;6242694;22;20040;-68
2021/07/09 03:52:19;;;;;;;16.15;6.45;;;;;;;27.70;62.36;100771.75;6242709;22;20012;-68
2021/07/09 03:54:46;;;;;;;14.45;5.50;;;;;;;27.83;61.54;100775.53;6243125;22;20020;-69
2021/07/09 03:57:14;;;;;;;15.32;6.30;;;;;;;27.94;61.27;100777.66;6242823;22;20054;-68
2021/07/09 03:59:41;;;;;;;14.00;6.60;;;;;;;28.05;61.41;100778.81;6244024;22;20016;-68
2021/07/09 04:02:10;;;;;;;15.07;6.05;;;;;;;28.17;60.92;100774.53;6242730;22;20254;-68
2021/07/09 04:04:39;;;;;;;14.13;6.70;;;;;;;28.26;61.09;100774.03;6243117;22;20044;-68
2021/07/09 04:07:07;;;;;;;14.85;6.38;;;;;;;28.37;60.35;100770.69;6242957;22;20038;-68
2021/07/09 04:09:34;;;;;;;11.48;5.43;;;;;;;28.43;59.72;100775.75;6242809;22;20046;-69
2021/07/09 04:12:02;;;;;;;11.75;5.53;;;;;;;28.52;59.45;100767.94;6242735;22;20040;-68
2021/07/09 04:14:29;;;;;;;12.95;5.05;;;;;;;28.54;58.66;100776.91;6243025;22;20027;-68
2021/07/09 04:16:57;;;;;;;14.43;5.65;;;;;;;28.70;58.45;100778.69;6240704;22;20096;-69
2021/07/09 04:19:26;;;;;;;13.77;5.30;;;;;;;28.83;58.09;100771.59;6242948;22;20062;-68
2021/07/09 04:21:54;;;;;;;13.85;5.40;;;;;;;28.95;57.62;100784.44;6242524;22;20016;-68
2021/07/09 04:24:21;;;;;;;14.13;4.90;;;;;;;29.12;57.32;100781.59;6242850;22;20090;-68
2021/07/09 04:26:49;;;;;;;12.07;4.45;;;;;;;29.27;56.97;100786.09;6242546;22;20016;-68
2021/07/09 04:29:17;;;;;;;13.80;5.13;;;;;;;29.39;56.50;100783.63;6243574;22;20020;-69
2021/07/09 04:31:45;;;;;;;10.60;4.40;;;;;;;29.51;55.88;100782.84;6242016;22;20020;-68
2021/07/09 04:34:13;;;;;;;14.10;4.78;;;;;;;29.64;55.48;100775.66;6243418;22;20028;-67
2021/07/09 04:36:43;;;;;;;14.50;4.72;;;;;;;29.79;54.34;100773.81;6243634;22;20039;-68
2021/07/09 04:39:10;;;;;;;12.18;4.85;;;;;;;29.87;54.27;100777.78;6241351;22;20066;-68
2021/07/09 04:41:39;;;;;;;13.82;4.40;;;;;;;30.02;53.86;100778.69;6243447;22;20016;-69
2021/07/09 04:44:09;;;;;;;10.10;4.40;;;;;;;30.22;53.13;100766.47;6241768;22;20012;-68
2021/07/09 04:46:37;;;;;;;12.27;4.32;;;;;;;30.43;52.78;100767.78;6240838;22;20020;-70
2021/07/09 04:49:05;;;;;;;13.38;4.97;;;;;;;30.62;52.06;100771.06;6242025;22;20016;-69
2021/07/09 04:51:33;;;;;;;15.52;5.13;;;;;;;30.72;52.09;100774.03;6239181;22;20047;-69
2021/07/09 04:54:03;;;;;;;12.90;4.55;;;;;;;30.98;52.08;100764.06;6241152;22;20044;-69
2021/07/09 04:56:32;;;;;;;15.88;5.32;;;;;;;31.18;51.37;100769.00;6241697;22;20020;-69
2021/07/09 04:59:00;;;;;;;17.33;5.30;;;;;;;31.31;50.76;100775.34;6241698;22;20016;-69
2021/07/09 05:01:28;;;;;;;14.45;4.28;;;;;;;31.51;50.36;100763.91;6241447;22;20020;-69
2021/07/09 05:03:58;;;;;;;11.50;4.28;;;;;;;31.57;49.46;100779.84;6241469;22;20091;-69
2021/07/09 05:06:26;;;;;;;14.07;4.47;;;;;;;31.79;49.30;100794.72;6240784;22;20016;-69
2021/07/09 05:08:54;;;;;;;12.23;4.03;;;;;;;32.06;48.94;100789.97;6239824;22;20509;-69
2021/07/09 05:11:23;;;;;;;9.35;3.90;;;;;;;32.41;47.73;100777.34;6242368;22;20071;-69
2021/07/09 05:13:50;;;;;;;11.30;4.40;;;;;;;32.67;47.12;100788.19;6241590;22;20315;-69
2021/07/09 05:16:18;;;;;;;11.13;3.72;;;;;;;32.80;46.84;100789.88;6242438;22;20047;-69
2021/07/09 05:18:46;;;;;;;13.30;4.68;;;;;;;32.90;46.39;100798.22;6242346;22;20027;-69
2021/07/09 05:21:13;;;;;;;8.00;3.70;;;;;;;33.13;45.60;100785.53;6241472;22;20043;-70
2021/07/09 05:23:41;;;;;;;14.35;4.75;;;;;;;33.19;44.85;100791.41;6242441;22;20489;-71
2021/07/09 05:26:08;;;;;;;9.40;3.78;;;;;;;33.10;45.04;100793.97;6241988;22;20027;-70
2021/07/09 05:28:38;;;;;;;11.75;4.20;;;;;;;33.22;44.81;100802.13;6241370;22;20016;-69
2021/07/09 05:31:07;;;;;;;9.27;3.85;;;;;;;33.52;44.62;100795.22;6242790;22;20036;-69
2021/07/09 05:33:35;;;;;;;9.15;3.45;;;;;;;33.79;44.24;100801.25;6242110;22;20024;-70
2021/07/09 05:36:03;;;;;;;9.20;3.80;;;;;;;33.90;44.23;100806.75;6241904;22;20020;-69
2021/07/09 05:38:30;;;;;;;15.30;4.43;;;;;;;34.07;44.25;100810.81;6241933;22;20024;-69
2021/07/09 05:40:58;;;;;;;13.95;4.10;;;;;;;34.39;43.60;100803.63;6242523;22;20083;-69
2021/07/09 05:43:26;;;;;;;9.75;3.75;;;;;;;34.45;42.50;100798.63;6241656;22;20024;-68
2021/07/09 05:45:55;;;;;;;13.85;4.05;;;;;;;34.56;42.66;100813.16;6242122;22;20051;-70
2021/07/09 05:48:23;;;;;;;14.70;3.80;;;;;;;34.95;41.96;100821.78;6241672;22;20024;-69
2021/07/09 05:50:50;;;;;;;9.80;3.88;;;;;;;35.39;41.31;100818.84;6241141;22;20020;-69
2021/07/09 05:53:18;;;;;;;11.80;4.22;;;;;;;35.42;40.78;100807.59;6242013;22;20030;-70
2021/07/09 05:55:46;;;;;;;10.35;3.78;;;;;;;35.65;40.62;100810.19;6241653;22;20050;-69
2021/07/09 05:58:15;;;;;;;10.52;4.22;;;;;;;35.49;40.49;100805.19;6241361;22;20016;-69
2021/07/09 06:00:43;;;;;;;11.32;4.15;;;;;;;35.32;40.79;100817.63;6242908;22;20022;-69
2021/07/09 06:03:12;;;;;;;10.30;4.18;;;;;;;35.47;40.66;100810.81;6239740;22;20040;-69
2021/07/09 06:05:39;;;;;;;9.02;3.63;;;;;;;35.58;40.73;100817.25;6242809;22;20016;-69
2021/07/09 06:08:09;;;;;;;13.95;4.53;;;;;;;35.78;40.59;100806.25;6241518;22;20020;-69
2021/07/09 06:10:38;;;;;;;9.57;3.92;;;;;;;36.03;40.16;100806.81;6241465;22;20020;-69
2021/07/09 06:13:06;;;;;;;9.93;3.80;;;;;;;36.36;39.66;100813.91;6241605;22;20346;-70
2021/07/09 06:15:33;;;;;;;10.02;4.10;;;;;;;36.56;39.52;100827.53;6241558;22;20067;-69
2021/07/09 06:18:01;;;;;;;9.43;4.28;;;;;;;36.22;40.05;100813.28;6240379;22;20028;-69
2021/07/09 06:20:30;;;;;;;12.30;4.25;;;;;;;35.84;40.32;100815.84;6241347;22;20036;-69
2021/07/09 06:22:58;;;;;;;11.00;4.40;;;;;;;36.13;40.19;100819.56;6241725;22;20389;-69
2021/07/09 06:25:25;;;;;;;12.85;4.78;;;;;;;36.14;39.77;100815.81;6241618;22;20193;-69
2021/07/09 06:27:53;;;;;;;10.48;3.90;;;;;;;35.90;39.46;100818.03;6241321;22;20066;-69
2021/07/09 06:30:21;;;;;;;13.05;3.80;;;;;;;35.36;40.63;100808.16;6241968;22;20020;-70
2021/07/09 06:32:48;;;;;;;14.25;4.18;;;;;;;35.86;40.14;100802.81;6241862;22;20016;-70
2021/07/09 06:35:18;;;;;;;9.23;3.75;;;;;;;35.74;40.23;100801.16;6241684;22;20039;-70
2021/07/09 06:37:47;;;;;;;11.40;3.75;;;;;;;35.90;39.83;100804.28;6242426;22;20020;-69
2021/07/09 06:40:16;;;;;;;11.30;4.10;;;;;;;36.17;39.34;100815.56;6243131;22;20023;-70
2021/07/09 06:42:43;;;;;;;12.05;3.45;;;;;;;36.23;39.16;100806.78;6244586;22;20024;-69
2021/07/09 06:45:13;;;;;;;8.88;3.70;;;;;;;36.34;39.04;100803.91;6242447;22;20016;-69
2021/07/09 06:47:40;;;;;;;9.05;3.30;;;;;;;36.59;38.67;100812.63;6242610;22;20051;-70
2021/07/09 06:50:08;;;;;;;10.85;3.83;;;;;;;36.34;38.44;100811.28;6241492;22;20020;-69
2021/07/09 06:52:36;;;;;;;11.23;4.63;;;;;;;35.93;38.91;100806.75;6242308;22;20017;-68
2021/07/09 06:55:07;;;;;;;11.30;3.28;;;;;;;35.34;39.92;100807.41;6243579;22;20473;-69
2021/07/09 06:57:34;;;;;;;10.63;3.72;;;;;;;35.50;39.59;100807.81;6244274;22;20020;-68
2021/07/09 07:00:02;;;;;;;14.13;3.95;;;;;;;35.62;39.80;100818.72;6243249;22;20043;-69
2021/07/09 07:02:30;;;;;;;11.88;3.65;;;;;;;35.99;39.62;100811.69;6237881;22;20351;-68
2021/07/09 07:04:57;;;;;;;10.00;4.05;;;;;;;35.81;39.81;100808.72;6241378;22;20016;-69
2021/07/09 07:07:25;;;;;;;11.45;4.00;;;;;;;35.41;40.31;100810.47;6242395;22;20054;-67
2021/07/09 07:09:52;;;;;;;11.32;3.88;;;;;;;35.55;40.37;100811.00;6242212;22;20023;-68
2021/07/09 07:12:21;;;;;;;16.52;3.45;;;;;;;35.75;40.24;100817.53;6242688;22;20315;-68
2021/07/09 07:14:48;;;;;;;16.83;3.92;;;;;;;35.72;39.90;100822.41;6242857;22;20016;-68
2021/07/09 07:17:17;;;;;;;12.60;4.47;;;;;;;35.39;40.43;100817.97;6243358;22;20058;-68
2021/07/09 07:19:46;;;;;;;11.13;4.13;;;;;;;35.01;40.82;100818.53;6242210;22;20012;-67
2021/07/09 07:22:14;;;;;;;12.50;4.50;;;;;;;34.85;40.70;100818.09;6243489;22;20032;-68
2021/07/09 07:24:41;;;;;;;11.05;4.32;;;;;;;34.16;42.00;100829.28;6242625;22;20042;-68
2021/07/09 07:27:09;;;;;;;10.38;3.95;;;;;;;34.30;42.24;100819.94;6241797;22;20040;-68
2021/07/09 07:29:38;;;;;;;14.80;3.92;;;;;;;34.45;41.98;100799.50;6242456;22;20354;-68
2021/07/09 07:32:06;;;;;;;10.90;3.72;;;;;;;35.01;41.56;100804.78;6241852;22;20047;-68
2021/07/09 07:34:34;;;;;;;12.75;3.88;;;;;;;34.91;41.42;100812.97;6241525;22;20086;-68
2021/07/09 07:37:01;;;;;;;11.40;4.18;;;;;;;34.39;41.97;100811.84;6240698;22;20016;-68
2021/07/09 07:39:29;;;;;;;10.52;4.43;;;;;;;34.32;42.17;100826.19;6241404;22;20016;-68
2021/07/09 07:41:57;;;;;;;14.55;3.97;;;;;;;34.31;42.32;100821.69;6242782;22;20020;-68
2021/07/09 07:44:26;;;;;;;16.60;4.43;;;;;;;34.56;41.73;100818.66;6241748;22;20020;-69
2021/07/09 07:46:56;;;;;;;11.48;4.00;;;;;;;34.41;42.08;100806.22;6243298;22;20016;-68
2021/07/09 07:49:24;;;;;;;8.88;4.07;;;;;;;34.84;41.59;100819.97;6242374;22;20039;-68
2021/07/09 07:51:52;;;;;;;11.75;4.32;;;;;;;34.58;41.59;100822.16;6242110;22;20016;-68
2021/07/09 07:54:20;;;;;;;13.23;4.60;;;;;;;34.06;42.23;100808.25;6241524;22;20020;-69
2021/07/09 07:56:48;;;;;;;12.73;4.10;;;;;;;33.91;42.65;100827.66;6242552;22;20016;-68
2021/07/09 07:59:15;;;;;;;12.77;4.00;;;;;;;33.98;42.95;100820.69;6243001;22;20016;-67
2021/07/09 08:01:43;;;;;;;13.38;4.25;;;;;;;33.71;42.70;100828.41;6242709;22;20039;-68
2021/07/09 08:04:12;;;;;;;11.23;4.72;;;;;;;33.65;42.75;100831.59;6242240;22;20047;-68
2021/07/09 08:06:40;;;;;;;14.15;4.43;;;;;;;33.76;42.93;100838.97;6243001;22;20672;-68
2021/07/09 08:09:08;;;;;;;14.55;4.28;;;;;;;34.08;42.69;100831.75;6241837;22;20020;-68
2021/07/09 08:11:36;;;;;;;12.98;4.55;;;;;;;33.82;43.16;100836.63;6242841;22;20031;-68
2021/07/09 08:14:03;;;;;;;13.02;4.47;;;;;;;33.51;44.02;100826.34;6242491;22;20114;-67
2021/07/09 08:16:31;;;;;;;14.40;4.43;;;;;;;33.30;44.41;100822.53;6241923;22;20036;-68
2021/07/09 08:18:59;;;;;;;15.30;4.65;;;;;;;33.25;44.51;100830.25;6242452;22;20090;-67
2021/07/09 08:21:28;;;;;;;11.52;4.07;;;;;;;33.14;44.36;100825.59;6242855;22;20078;-68
2021/07/09 08:23:55;;;;;;;13.02;4.18;;;;;;;33.02;44.06;100827.38;6242064;22;20023;-68
2021/07/09 08:26:23;;;;;;;12.73;4.55;;;;;;;33.03;44.60;100820.91;6242552;22;20022;-67
2021/07/09 08:28:51;;;;;;;13.50;3.92;;;;;;;33.28;44.44;100822.66;6242253;22;20027;-68
2021/07/09 08:31:22;;;;;;;13.13;5.07;;;;;;;33.40;44.12;100820.84;6241995;22;20058;-68
2021/07/09 08:33:49;;;;;;;18.10;4.28;;;;;;;33.19;44.27;100824.25;6242395;22;20020;-68
2021/07/09 08:36:17;;;;;;;25.23;5.50;;;;;;;33.03;43.90;100823.66;6241913;22;20039;-68
2021/07/09 08:38:46;;;;;;;14.75;5.20;;;;;;;32.83;44.62;100829.78;6240766;22;20083;-68
2021/07/09 08:41:14;;;;;;;15.82;4.90;;;;;;;32.92;44.79;100823.63;6241890;22;20016;-68
2021/07/09 08:43:41;;;;;;;8.20;3.92;;;;;;;32.96;44.83;100822.38;6242826;22;20324;-68
2021/07/09 08:46:09;;;;;;;8.88;3.80;;;;;;;32.99;44.19;100833.09;6241658;22;20070;-68
2021/07/09 08:48:38;;;;;;;12.65;4.43;;;;;;;32.82;44.05;100823.44;6242599;22;20544;-67
2021/07/09 08:51:05;;;;;;;16.50;4.45;;;;;;;32.62;44.41;100832.28;6241185;22;20547;-67
2021/07/09 08:53:34;;;;;;;11.68;4.40;;;;;;;32.66;44.82;100827.44;6242449;22;20040;-67
2021/07/09 08:56:04;;;;;;;15.20;5.20;;;;;;;32.84;44.64;100815.13;6242051;22;20020;-67
2021/07/09 08:58:33;;;;;;;14.52;4.32;;;;;;;33.06;44.77;100819.81;6241768;22;20385;-67
2021/07/09 09:01:01;;;;;;;12.95;4.15;;;;;;;32.87;45.05;100824.97;6241416;22;20016;-68
2021/07/09 09:03:29;;;;;;;10.00;4.30;;;;;;;32.87;45.37;100822.25;6242571;22;20020;-68
2021/07/09 09:06:01;;;;;;;12.35;4.18;;;;;;;33.42;44.51;100821.56;6241199;22;20012;-67
2021/07/09 09:08:29;;;;;;;14.95;3.88;;;;;;;33.59;44.43;100824.75;6242359;22;20028;-68
2021/07/09 09:10:59;;;;;;;11.98;4.07;;;;;;;33.57;43.91;100829.47;6242007;22;20020;-68
2021/07/09 09:13:30;;;;;;;9.50;3.78;;;;;;;33.47;44.33;100822.09;6241362;22;20042;-68
2021/07/09 09:16:03;;;;;;;10.60;4.43;;;;;;;33.65;43.63;100812.41;6241663;22;20453;-68
2021/07/09 09:18:33;;;;;;;10.50;4.82;;;;;;;34.11;43.53;100817.81;6242092;22;20462;-68
2021/07/09 09:21:09;;;;;;;12.50;4.60;;;;;;;34.11;42.67;100815.09;6241537;22;20385;-68
2021/07/09 09:23:37;;;;;;;11.25;4.53;;;;;;;33.98;43.38;100817.94;6240557;22;20504;-69
2021/07/09 09:26:07;;;;;;;14.15;4.38;;;;;;;34.02;43.19;100807.59;6241198;22;20082;-68
2021/07/09 09:28:40;;;;;;;11.40;4.68;;;;;;;34.10;42.83;100821.56;6241949;22;20023;-68
2021/07/09 09:31:08;;;;;;;15.05;4.72;;;;;;;34.22;42.90;100814.22;6241716;22;20027;-68
2021/07/09 09:33:38;;;;;;;14.23;4.10;;;;;;;34.34;42.65;100811.34;6241748;22;20032;-68
2021/07/09 09:36:09;;;;;;;13.73;4.38;;;;;;;34.45;42.32;100815.94;6242242;22;20795;-68
2021/07/09 09:38:37;;;;;;;19.70;5.50;;;;;;;34.25;42.56;100831.31;6242127;22;20460;-68
2021/07/09 09:41:06;;;;;;;11.82;4.85;;;;;;;33.77;42.93;100813.31;6241193;22;20354;-68
2021/07/09 09:43:34;;;;;;;9.95;4.00;;;;;;;33.78;43.19;100818.69;6242032;22;20346;-68
2021/07/09 09:46:05;;;;;;;10.05;4.35;;;;;;;33.76;43.21;100814.31;6241581;22;20576;-68
2021/07/09 09:48:46;;;;;;;12.48;4.45;;;;;;;34.20;42.84;100807.97;6242151;22;20020;-68
2021/07/09 09:51:24;;;;;;;13.10;4.38;;;;;;;34.07;42.80;100820.94;6241672;22;20023;-68
2021/07/09 09:53:53;;;;;;;14.93;3.90;;;;;;;33.97;43.21;100821.69;6241535;22;20401;-68
2021/07/09 09:56:32;;;;;;;11.80;4.75;;;;;;;33.75;43.55;100818.06;6240779;22;20091;-67
2021/07/09 09:59:13;;;;;;;17.75;4.72;;;;;;;34.05;43.36;100801.00;6241992;22;20449;-68
2021/07/09 10:01:49;;;;;;;11.52;4.30;;;;;;;34.21;42.67;100810.59;6242155;22;20013;-68
2021/07/09 10:04:17;;;;;;;7.35;3.67;;;;;;;34.34;42.49;100819.56;6241174;22;20020;-67
2021/07/09 10:06:46;;;;;;;11.07;4.05;;;;;;;34.43;42.73;100817.06;6241516;22;20040;-68
2021/07/09 10:09:14;;;;;;;14.43;4.55;;;;;;;34.52;42.82;100819.91;6241919;22;20058;-68
2021/07/09 10:11:43;;;;;;;12.43;5.00;;;;;;;34.61;42.56;100818.25;6243209;22;20063;-68
2021/07/09 10:14:13;;;;;;;15.23;4.65;;;;;;;34.76;42.08;100815.13;6244376;22;20091;-67
2021/07/09 10:16:43;;;;;;;12.73;4.25;;;;;;;34.79;42.15;100812.09;6241656;22;20035;-68
2021/07/09 10:19:16;;;;;;;11.35;4.57;;;;;;;34.83;41.59;100809.13;6243717;22;20035;-68
2021/07/09 10:21:44;;;;;;;13.43;4.68;;;;;;;34.80;41.93;100815.72;6243933;22;20016;-68
2021/07/09 10:24:16;;;;;;;14.30;4.40;;;;;;;34.92;41.22;100802.84;6243962;22;20020;-69
2021/07/09 10:26:46;;;;;;;13.93;5.35;;;;;;;34.69;42.02;100793.78;6242251;22;20446;-69
2021/07/09 10:29:15;;;;;;;12.85;4.53;;;;;;;34.60;41.71;100792.69;6242796;22;20035;-69
2021/07/09 10:31:44;;;;;;;17.98;4.43;;;;;;;34.70;41.93;100806.50;6243729;22;20023;-70
2021/07/09 10:34:34;;;;;;;12.07;4.78;;;;;;;34.74;42.04;100808.91;6243761;22;20032;-69
2021/07/09 12:14:15;;;;;;;17.20;5.13;;;;;;;35.36;41.04;100782.56;5070789;27;20362;-65
2021/07/09 12:16:42;;;;;;;15.40;5.28;;;;;;;35.63;40.37;100782.00;5072835;28;20511;-67
2021/07/09 12:19:10;;;;;;;12.98;5.25;;;;;;;35.57;40.26;100777.91;5071526;28;20127;-67
2021/07/09 12:21:37;;;;;;;14.63;5.22;;;;;;;35.96;39.46;100787.25;5079132;28;20599;-66
2021/07/09 12:24:06;;;;;;;17.60;5.57;;;;;;;35.68;39.65;100772.31;5078272;28;20044;-65
2021/07/09 12:26:35;;;;;;;13.38;5.70;;;;;;;35.79;39.74;100768.63;5071008;28;20056;-65
2021/07/09 12:29:03;;;;;;;12.52;5.00;;;;;;;35.54;40.15;100746.06;5078043;28;20047;-66
2021/07/09 12:31:33;;;;;;;13.95;4.50;;;;;;;35.78;39.61;100761.38;5077580;28;20040;-66
2021/07/09 12:34:00;;;;;;;10.13;4.75;;;;;;;35.78;39.30;100756.75;5074853;28;20040;-67
2021/07/09 12:36:31;;;;;;;15.50;5.75;;;;;;;35.33;39.86;100756.22;5074126;28;20059;-67
2021/07/09 12:39:02;;;;;;;15.73;5.57;;;;;;;35.33;40.34;100758.09;5080411;28;20036;-66
2021/07/09 12:41:34;;;;;;;17.17;5.15;;;;;;;35.26;39.87;100757.75;5086473;28;20063;-66
2021/07/09 12:44:10;;;;;;;17.23;5.85;;;;;;;35.11;40.12;100757.22;5068125;28;20143;-66
2021/07/09 12:46:46;;;;;;;13.55;5.88;;;;;;;34.80;40.40;100744.38;5085700;28;20493;-65
2021/07/09 12:49:23;;;;;;;12.68;4.40;;;;;;;34.66;40.59;100733.69;5069321;28;20052;-65
2021/07/09 12:51:53;;;;;;;14.77;5.50;;;;;;;34.99;40.43;100750.03;5086010;28;20051;-67
2021/07/09 12:54:26;;;;;;;9.98;4.80;;;;;;;34.93;39.93;100742.31;5073480;28;20131;-66
2021/07/09 12:57:05;;;;;;;15.63;5.07;;;;;;;34.91;40.05;100762.69;5099687;28;20043;-66
2021/07/09 12:59:38;;;;;;;12.60;5.03;;;;;;;34.94;39.78;100754.16;5085649;27;20497;-66
2021/07/09 13:02:13;;;;;;;11.93;5.25;;;;;;;34.75;39.81;100760.38;5084576;28;20048;-67